sensor_id;sensor_type;location;lat;lon;timestamp;P1;P2;P0
81989;PMS5003;71485;51.638;-0.182;2024-02-28T00:00:28;5;5;
81989;PMS5003;71485;51.638;-0.182;2024-02-28T00:02:53;5;5;
81989;PMS5003;71485;51.638;-0.182;2024-02-28T00:05:19;4;4;
81989;PMS5003;71485;51.638;-0.182;2024-02-28T00:07:46;5;5;
81989;PMS5003;71485;51.638;-0.182;2024-02-28T00:10:10;4;4;
81989;PMS5003;71485;51.638;-0.182;2024-02-28T00:12:35;4;4;
81989;PMS5003;71485;51.638;-0.182;2024-02-28T00:15:01;7;6;
81989;PMS5003;71485;51.638;-0.182;2024-02-28T00:17:27;5;5;
81989;PMS5003;71485;51.638;-0.182;2024-02-28T00:19:52;6;5;
81989;PMS5003;71485;51.638;-0.182;2024-02-28T00:22:18;3;3;
81989;PMS5003;71485;51.638;-0.182;2024-02-28T00:24:44;3;3;
81989;PMS5003;71485;51.638;-0.182;2024-02-28T00:27:10;7;6;
81989;PMS5003;71485;51.638;-0.182;2024-02-28T00:29:35;3;3;
81989;PMS5003;71485;51.638;-0.182;2024-02-28T00:32:00;6;6;
81989;PMS5003;71485;51.638;-0.182;2024-02-28T00:34:26;3;3;
81989;PMS5003;71485;51.638;-0.182;2024-02-28T00:36:51;5;5;
81989;PMS5003;71485;51.638;-0.182;2024-02-28T00:39:18;5;4;
81989;PMS5003;71485;51.638;-0.182;2024-02-28T00:41:43;5;5;
81989;PMS5003;71485;51.638;-0.182;2024-02-28T00:44:08;4;4;
81989;PMS5003;71485;51.638;-0.182;2024-02-28T00:46:34;4;4;
81989;PMS5003;71485;51.638;-0.182;2024-02-28T00:49:00;4;4;
81989;PMS5003;71485;51.638;-0.182;2024-02-28T00:51:26;4;3;
81989;PMS5003;71485;51.638;-0.182;2024-02-28T00:53:51;5;5;
81989;PMS5003;71485;51.638;-0.182;2024-02-28T00:56:18;3;3;
81989;PMS5003;71485;51.638;-0.182;2024-02-28T00:58:44;3;3;
81989;PMS5003;71485;51.638;-0.182;2024-02-28T01:01:08;5;5;
81989;PMS5003;71485;51.638;-0.182;2024-02-28T01:03:34;4;4;
81989;PMS5003;71485;51.638;-0.182;2024-02-28T01:06:00;3;3;
81989;PMS5003;71485;51.638;-0.182;2024-02-28T01:08:29;3;3;
81989;PMS5003;71485;51.638;-0.182;2024-02-28T01:10:56;6;6;
81989;PMS5003;71485;51.638;-0.182;2024-02-28T01:13:16;4;4;
81989;PMS5003;71485;51.638;-0.182;2024-02-28T01:15:42;6;6;
81989;PMS5003;71485;51.638;-0.182;2024-02-28T01:18:08;4;4;
81989;PMS5003;71485;51.638;-0.182;2024-02-28T01:20:33;3;3;
81989;PMS5003;71485;51.638;-0.182;2024-02-28T01:22:59;3;3;
81989;PMS5003;71485;51.638;-0.182;2024-02-28T01:25:25;4;4;
81989;PMS5003;71485;51.638;-0.182;2024-02-28T01:27:51;3;3;
81989;PMS5003;71485;51.638;-0.182;2024-02-28T01:30:16;5;3;
81989;PMS5003;71485;51.638;-0.182;2024-02-28T01:32:41;5;5;
81989;PMS5003;71485;51.638;-0.182;2024-02-28T01:35:08;4;3;
81989;PMS5003;71485;51.638;-0.182;2024-02-28T01:37:33;6;5;
81989;PMS5003;71485;51.638;-0.182;2024-02-28T01:40:02;3;3;
81989;PMS5003;71485;51.638;-0.182;2024-02-28T01:42:24;4;4;
81989;PMS5003;71485;51.638;-0.182;2024-02-28T01:44:50;3;3;
81989;PMS5003;71485;51.638;-0.182;2024-02-28T01:47:15;5;5;
81989;PMS5003;71485;51.638;-0.182;2024-02-28T01:49:42;4;4;
81989;PMS5003;71485;51.638;-0.182;2024-02-28T01:52:06;3;3;
81989;PMS5003;71485;51.638;-0.182;2024-02-28T01:54:32;4;4;
81989;PMS5003;71485;51.638;-0.182;2024-02-28T01:56:58;4;4;
81989;PMS5003;71485;51.638;-0.182;2024-02-28T01:59:24;3;3;
81989;PMS5003;71485;51.638;-0.182;2024-02-28T02:01:50;5;5;
81989;PMS5003;71485;51.638;-0.182;2024-02-28T02:04:15;4;4;
81989;PMS5003;71485;51.638;-0.182;2024-02-28T02:06:43;3;3;
81989;PMS5003;71485;51.638;-0.182;2024-02-28T02:09:09;4;4;
81989;PMS5003;71485;51.638;-0.182;2024-02-28T02:11:32;4;4;
81989;PMS5003;71485;51.638;-0.182;2024-02-28T02:13:57;3;3;
81989;PMS5003;71485;51.638;-0.182;2024-02-28T02:16:23;4;4;
81989;PMS5003;71485;51.638;-0.182;2024-02-28T02:18:49;4;4;
81989;PMS5003;71485;51.638;-0.182;2024-02-28T02:21:15;4;4;
81989;PMS5003;71485;51.638;-0.182;2024-02-28T02:23:40;4;4;
81989;PMS5003;71485;51.638;-0.182;2024-02-28T02:26:07;3;3;
81989;PMS5003;71485;51.638;-0.182;2024-02-28T02:28:31;3;3;
81989;PMS5003;71485;51.638;-0.182;2024-02-28T02:30:57;3;3;
81989;PMS5003;71485;51.638;-0.182;2024-02-28T02:33:23;4;4;
81989;PMS5003;71485;51.638;-0.182;2024-02-28T02:35:48;4;3;
81989;PMS5003;71485;51.638;-0.182;2024-02-28T02:38:14;4;4;
81989;PMS5003;71485;51.638;-0.182;2024-02-28T02:40:39;5;4;
81989;PMS5003;71485;51.638;-0.182;2024-02-28T02:43:05;4;4;
81989;PMS5003;71485;51.638;-0.182;2024-02-28T02:45:30;3;3;
81989;PMS5003;71485;51.638;-0.182;2024-02-28T02:47:56;3;3;
81989;PMS5003;71485;51.638;-0.182;2024-02-28T02:50:23;2;1;
81989;PMS5003;71485;51.638;-0.182;2024-02-28T02:52:48;3;3;
81989;PMS5003;71485;51.638;-0.182;2024-02-28T02:55:14;5;4;
81989;PMS5003;71485;51.638;-0.182;2024-02-28T02:57:40;4;4;
81989;PMS5003;71485;51.638;-0.182;2024-02-28T03:00:10;4;4;
81989;PMS5003;71485;51.638;-0.182;2024-02-28T03:02:30;4;4;
81989;PMS5003;71485;51.638;-0.182;2024-02-28T03:04:57;2;2;
81989;PMS5003;71485;51.638;-0.182;2024-02-28T03:07:22;3;3;
81989;PMS5003;71485;51.638;-0.182;2024-02-28T03:09:54;5;5;
81989;PMS5003;71485;51.638;-0.182;2024-02-28T03:12:13;4;3;
81989;PMS5003;71485;51.638;-0.182;2024-02-28T03:14:38;4;3;
81989;PMS5003;71485;51.638;-0.182;2024-02-28T03:17:04;4;4;
81989;PMS5003;71485;51.638;-0.182;2024-02-28T03:19:30;4;4;
81989;PMS5003;71485;51.638;-0.182;2024-02-28T03:21:55;3;3;
81989;PMS5003;71485;51.638;-0.182;2024-02-28T03:24:22;5;5;
81989;PMS5003;71485;51.638;-0.182;2024-02-28T03:26:47;4;4;
81989;PMS5003;71485;51.638;-0.182;2024-02-28T03:29:16;4;3;
81989;PMS5003;71485;51.638;-0.182;2024-02-28T03:31:39;4;4;
81989;PMS5003;71485;51.638;-0.182;2024-02-28T03:34:03;3;2;
81989;PMS5003;71485;51.638;-0.182;2024-02-28T03:36:29;3;3;
81989;PMS5003;71485;51.638;-0.182;2024-02-28T03:38:55;3;3;
81989;PMS5003;71485;51.638;-0.182;2024-02-28T03:41:24;4;4;
81989;PMS5003;71485;51.638;-0.182;2024-02-28T03:43:47;4;4;
81989;PMS5003;71485;51.638;-0.182;2024-02-28T03:46:11;4;4;
81989;PMS5003;71485;51.638;-0.182;2024-02-28T03:48:37;3;3;
81989;PMS5003;71485;51.638;-0.182;2024-02-28T03:51:04;5;5;
81989;PMS5003;71485;51.638;-0.182;2024-02-28T03:53:28;4;4;
81989;PMS5003;71485;51.638;-0.182;2024-02-28T03:55:56;4;4;
81989;PMS5003;71485;51.638;-0.182;2024-02-28T03:58:21;4;4;
81989;PMS5003;71485;51.638;-0.182;2024-02-28T04:00:47;4;4;
81989;PMS5003;71485;51.638;-0.182;2024-02-28T04:03:11;3;3;
81989;PMS5003;71485;51.638;-0.182;2024-02-28T04:05:37;4;4;
81989;PMS5003;71485;51.638;-0.182;2024-02-28T04:08:05;4;4;
81989;PMS5003;71485;51.638;-0.182;2024-02-28T04:10:28;6;5;
81989;PMS5003;71485;51.638;-0.182;2024-02-28T04:12:53;4;4;
81989;PMS5003;71485;51.638;-0.182;2024-02-28T04:15:19;4;4;
81989;PMS5003;71485;51.638;-0.182;2024-02-28T04:17:45;2;2;
81989;PMS5003;71485;51.638;-0.182;2024-02-28T04:20:10;4;3;
81989;PMS5003;71485;51.638;-0.182;2024-02-28T04:22:37;4;4;
81989;PMS5003;71485;51.638;-0.182;2024-02-28T04:25:03;3;3;
81989;PMS5003;71485;51.638;-0.182;2024-02-28T04:27:27;4;4;
81989;PMS5003;71485;51.638;-0.182;2024-02-28T04:29:54;4;3;
81989;PMS5003;71485;51.638;-0.182;2024-02-28T04:32:18;3;3;
81989;PMS5003;71485;51.638;-0.182;2024-02-28T04:34:44;3;3;
81989;PMS5003;71485;51.638;-0.182;2024-02-28T04:37:10;4;4;
81989;PMS5003;71485;51.638;-0.182;2024-02-28T04:39:37;4;3;
81989;PMS5003;71485;51.638;-0.182;2024-02-28T04:42:01;3;3;
81989;PMS5003;71485;51.638;-0.182;2024-02-28T04:44:26;4;4;
81989;PMS5003;71485;51.638;-0.182;2024-02-28T04:46:52;4;4;
81989;PMS5003;71485;51.638;-0.182;2024-02-28T04:49:23;4;4;
81989;PMS5003;71485;51.638;-0.182;2024-02-28T04:51:44;3;3;
81989;PMS5003;71485;51.638;-0.182;2024-02-28T04:54:09;4;4;
81989;PMS5003;71485;51.638;-0.182;2024-02-28T04:56:39;4;4;
81989;PMS5003;71485;51.638;-0.182;2024-02-28T04:59:01;4;4;
81989;PMS5003;71485;51.638;-0.182;2024-02-28T05:01:26;4;4;
81989;PMS5003;71485;51.638;-0.182;2024-02-28T05:03:51;4;4;
81989;PMS5003;71485;51.638;-0.182;2024-02-28T05:06:19;4;4;
81989;PMS5003;71485;51.638;-0.182;2024-02-28T05:08:44;4;4;
81989;PMS5003;71485;51.638;-0.182;2024-02-28T05:11:08;3;3;
81989;PMS5003;71485;51.638;-0.182;2024-02-28T05:13:35;3;3;
81989;PMS5003;71485;51.638;-0.182;2024-02-28T05:16:00;5;5;
81989;PMS5003;71485;51.638;-0.182;2024-02-28T05:18:25;4;4;
81989;PMS5003;71485;51.638;-0.182;2024-02-28T05:20:51;5;5;
81989;PMS5003;71485;51.638;-0.182;2024-02-28T05:23:16;4;4;
81989;PMS5003;71485;51.638;-0.182;2024-02-28T05:25:46;5;4;
81989;PMS5003;71485;51.638;-0.182;2024-02-28T05:28:08;5;4;
81989;PMS5003;71485;51.638;-0.182;2024-02-28T05:30:33;6;6;
81989;PMS5003;71485;51.638;-0.182;2024-02-28T05:32:59;4;4;
81989;PMS5003;71485;51.638;-0.182;2024-02-28T05:35:25;3;3;
81989;PMS5003;71485;51.638;-0.182;2024-02-28T05:37:54;3;3;
81989;PMS5003;71485;51.638;-0.182;2024-02-28T05:40:20;5;5;
81989;PMS5003;71485;51.638;-0.182;2024-02-28T05:42:41;3;3;
81989;PMS5003;71485;51.638;-0.182;2024-02-28T05:45:09;3;3;
81989;PMS5003;71485;51.638;-0.182;2024-02-28T05:47:34;5;5;
81989;PMS5003;71485;51.638;-0.182;2024-02-28T05:50:00;5;5;
81989;PMS5003;71485;51.638;-0.182;2024-02-28T05:52:25;4;4;
81989;PMS5003;71485;51.638;-0.182;2024-02-28T05:54:51;3;3;
81989;PMS5003;71485;51.638;-0.182;2024-02-28T05:57:15;5;5;
81989;PMS5003;71485;51.638;-0.182;2024-02-28T05:59:42;4;4;
81989;PMS5003;71485;51.638;-0.182;2024-02-28T06:02:08;6;6;
81989;PMS5003;71485;51.638;-0.182;2024-02-28T06:04:34;4;4;
81989;PMS5003;71485;51.638;-0.182;2024-02-28T06:07:04;5;4;
81989;PMS5003;71485;51.638;-0.182;2024-02-28T06:09:25;4;4;
81989;PMS5003;71485;51.638;-0.182;2024-02-28T06:11:50;3;3;
81989;PMS5003;71485;51.638;-0.182;2024-02-28T06:14:14;5;5;
81989;PMS5003;71485;51.638;-0.182;2024-02-28T06:16:40;5;4;
81989;PMS5003;71485;51.638;-0.182;2024-02-28T06:19:06;4;4;
81989;PMS5003;71485;51.638;-0.182;2024-02-28T06:21:31;5;5;
81989;PMS5003;71485;51.638;-0.182;2024-02-28T06:23:57;4;4;
81989;PMS5003;71485;51.638;-0.182;2024-02-28T06:26:26;6;6;
81989;PMS5003;71485;51.638;-0.182;2024-02-28T06:28:50;5;5;
81989;PMS5003;71485;51.638;-0.182;2024-02-28T06:31:14;4;4;
81989;PMS5003;71485;51.638;-0.182;2024-02-28T06:33:40;3;3;
81989;PMS5003;71485;51.638;-0.182;2024-02-28T06:36:05;4;4;
81989;PMS5003;71485;51.638;-0.182;2024-02-28T06:38:32;5;5;
81989;PMS5003;71485;51.638;-0.182;2024-02-28T06:40:57;5;5;
81989;PMS5003;71485;51.638;-0.182;2024-02-28T06:43:27;6;6;
81989;PMS5003;71485;51.638;-0.182;2024-02-28T06:45:48;5;5;
81989;PMS5003;71485;51.638;-0.182;2024-02-28T06:48:13;3;3;
81989;PMS5003;71485;51.638;-0.182;2024-02-28T06:50:41;5;5;
81989;PMS5003;71485;51.638;-0.182;2024-02-28T06:53:05;4;4;
81989;PMS5003;71485;51.638;-0.182;2024-02-28T06:55:30;4;4;
81989;PMS5003;71485;51.638;-0.182;2024-02-28T06:57:56;7;7;
81989;PMS5003;71485;51.638;-0.182;2024-02-28T07:00:23;3;3;
81989;PMS5003;71485;51.638;-0.182;2024-02-28T07:02:47;5;5;
81989;PMS5003;71485;51.638;-0.182;2024-02-28T07:05:13;5;5;
81989;PMS5003;71485;51.638;-0.182;2024-02-28T07:07:40;5;5;
81989;PMS5003;71485;51.638;-0.182;2024-02-28T07:10:07;5;5;
81989;PMS5003;71485;51.638;-0.182;2024-02-28T07:12:30;4;4;
81989;PMS5003;71485;51.638;-0.182;2024-02-28T07:14:55;5;5;
81989;PMS5003;71485;51.638;-0.182;2024-02-28T07:17:21;5;4;
81989;PMS5003;71485;51.638;-0.182;2024-02-28T07:19:47;6;6;
81989;PMS5003;71485;51.638;-0.182;2024-02-28T07:22:12;5;5;
81989;PMS5003;71485;51.638;-0.182;2024-02-28T07:24:39;4;4;
81989;PMS5003;71485;51.638;-0.182;2024-02-28T07:27:04;6;5;
81989;PMS5003;71485;51.638;-0.182;2024-02-28T07:29:31;5;4;
81989;PMS5003;71485;51.638;-0.182;2024-02-28T07:31:55;5;5;
81989;PMS5003;71485;51.638;-0.182;2024-02-28T07:34:20;6;5;
81989;PMS5003;71485;51.638;-0.182;2024-02-28T07:36:46;5;5;
81989;PMS5003;71485;51.638;-0.182;2024-02-28T07:39:12;6;6;
81989;PMS5003;71485;51.638;-0.182;2024-02-28T07:41:37;6;4;
81989;PMS5003;71485;51.638;-0.182;2024-02-28T07:44:03;4;4;
81989;PMS5003;71485;51.638;-0.182;2024-02-28T07:46:29;3;3;
81989;PMS5003;71485;51.638;-0.182;2024-02-28T07:48:54;5;5;
81989;PMS5003;71485;51.638;-0.182;2024-02-28T07:51:21;7;7;
81989;PMS5003;71485;51.638;-0.182;2024-02-28T07:53:46;6;6;
81989;PMS5003;71485;51.638;-0.182;2024-02-28T07:56:15;5;4;
81989;PMS5003;71485;51.638;-0.182;2024-02-28T07:58:38;5;5;
81989;PMS5003;71485;51.638;-0.182;2024-02-28T08:01:03;4;4;
81989;PMS5003;71485;51.638;-0.182;2024-02-28T08:03:28;6;6;
81989;PMS5003;71485;51.638;-0.182;2024-02-28T08:05:54;5;5;
81989;PMS5003;71485;51.638;-0.182;2024-02-28T08:08:21;3;3;
81989;PMS5003;71485;51.638;-0.182;2024-02-28T08:10:46;5;5;
81989;PMS5003;71485;51.638;-0.182;2024-02-28T08:13:11;6;5;
81989;PMS5003;71485;51.638;-0.182;2024-02-28T08:15:36;4;4;
81989;PMS5003;71485;51.638;-0.182;2024-02-28T08:18:03;5;5;
81989;PMS5003;71485;51.638;-0.182;2024-02-28T08:20:29;4;4;
81989;PMS5003;71485;51.638;-0.182;2024-02-28T08:22:54;5;5;
81989;PMS5003;71485;51.638;-0.182;2024-02-28T08:25:21;4;4;
81989;PMS5003;71485;51.638;-0.182;2024-02-28T08:27:46;5;5;
81989;PMS5003;71485;51.638;-0.182;2024-02-28T08:30:11;3;3;
81989;PMS5003;71485;51.638;-0.182;2024-02-28T08:32:36;3;3;
81989;PMS5003;71485;51.638;-0.182;2024-02-28T08:35:02;4;4;
81989;PMS5003;71485;51.638;-0.182;2024-02-28T08:37:27;4;4;
81989;PMS5003;71485;51.638;-0.182;2024-02-28T08:39:53;5;5;
81989;PMS5003;71485;51.638;-0.182;2024-02-28T08:42:19;3;3;
81989;PMS5003;71485;51.638;-0.182;2024-02-28T08:44:44;3;3;
81989;PMS5003;71485;51.638;-0.182;2024-02-28T08:47:11;5;5;
81989;PMS5003;71485;51.638;-0.182;2024-02-28T08:49:38;5;4;
81989;PMS5003;71485;51.638;-0.182;2024-02-28T08:52:01;5;3;
81989;PMS5003;71485;51.638;-0.182;2024-02-28T08:54:27;4;4;
81989;PMS5003;71485;51.638;-0.182;2024-02-28T08:56:53;3;3;
81989;PMS5003;71485;51.638;-0.182;2024-02-28T08:59:19;2;2;
81989;PMS5003;71485;51.638;-0.182;2024-02-28T09:01:44;3;3;
81989;PMS5003;71485;51.638;-0.182;2024-02-28T09:04:10;5;5;
81989;PMS5003;71485;51.638;-0.182;2024-02-28T09:06:37;4;4;
81989;PMS5003;71485;51.638;-0.182;2024-02-28T09:09:02;4;4;
81989;PMS5003;71485;51.638;-0.182;2024-02-28T09:11:27;3;2;
81989;PMS5003;71485;51.638;-0.182;2024-02-28T09:13:52;2;2;
81989;PMS5003;71485;51.638;-0.182;2024-02-28T09:16:18;3;3;
81989;PMS5003;71485;51.638;-0.182;2024-02-28T09:18:43;2;2;
81989;PMS5003;71485;51.638;-0.182;2024-02-28T09:21:09;4;4;
81989;PMS5003;71485;51.638;-0.182;2024-02-28T09:23:40;3;3;
81989;PMS5003;71485;51.638;-0.182;2024-02-28T09:26:03;3;3;
81989;PMS5003;71485;51.638;-0.182;2024-02-28T09:28:26;2;2;
81989;PMS5003;71485;51.638;-0.182;2024-02-28T09:30:51;3;3;
81989;PMS5003;71485;51.638;-0.182;2024-02-28T09:33:17;4;3;
81989;PMS5003;71485;51.638;-0.182;2024-02-28T09:35:43;3;2;
81989;PMS5003;71485;51.638;-0.182;2024-02-28T09:38:13;4;4;
81989;PMS5003;71485;51.638;-0.182;2024-02-28T09:40:34;9;8;
81989;PMS5003;71485;51.638;-0.182;2024-02-28T09:43:00;11;9;
81989;PMS5003;71485;51.638;-0.182;2024-02-28T09:45:25;11;9;
81989;PMS5003;71485;51.638;-0.182;2024-02-28T09:47:51;17;13;
81989;PMS5003;71485;51.638;-0.182;2024-02-28T09:50:19;12;12;
81989;PMS5003;71485;51.638;-0.182;2024-02-28T09:52:42;8;8;
81989;PMS5003;71485;51.638;-0.182;2024-02-28T09:55:08;11;10;
81989;PMS5003;71485;51.638;-0.182;2024-02-28T09:57:33;8;8;
81989;PMS5003;71485;51.638;-0.182;2024-02-28T10:00:00;9;7;
81989;PMS5003;71485;51.638;-0.182;2024-02-28T10:02:25;14;10;
81989;PMS5003;71485;51.638;-0.182;2024-02-28T10:04:49;8;8;
81989;PMS5003;71485;51.638;-0.182;2024-02-28T10:07:16;9;9;
81989;PMS5003;71485;51.638;-0.182;2024-02-28T10:09:42;10;9;
81989;PMS5003;71485;51.638;-0.182;2024-02-28T10:12:06;7;7;
81989;PMS5003;71485;51.638;-0.182;2024-02-28T10:14:31;9;9;
81989;PMS5003;71485;51.638;-0.182;2024-02-28T10:16:57;10;10;
81989;PMS5003;71485;51.638;-0.182;2024-02-28T10:19:23;9;9;
81989;PMS5003;71485;51.638;-0.182;2024-02-28T10:21:49;6;5;
81989;PMS5003;71485;51.638;-0.182;2024-02-28T10:24:19;5;5;
81989;PMS5003;71485;51.638;-0.182;2024-02-28T10:26:44;8;7;
81989;PMS5003;71485;51.638;-0.182;2024-02-28T10:29:05;5;5;
81989;PMS5003;71485;51.638;-0.182;2024-02-28T10:31:32;5;5;
81989;PMS5003;71485;51.638;-0.182;2024-02-28T10:33:57;6;6;
81989;PMS5003;71485;51.638;-0.182;2024-02-28T10:36:21;12;10;
81989;PMS5003;71485;51.638;-0.182;2024-02-28T10:38:49;5;4;
81989;PMS5003;71485;51.638;-0.182;2024-02-28T10:41:11;5;5;
81989;PMS5003;71485;51.638;-0.182;2024-02-28T10:43:37;3;3;
81989;PMS5003;71485;51.638;-0.182;2024-02-28T10:46:03;4;3;
81989;PMS5003;71485;51.638;-0.182;2024-02-28T10:48:28;4;3;
81989;PMS5003;71485;51.638;-0.182;2024-02-28T10:50:57;5;5;
81989;PMS5003;71485;51.638;-0.182;2024-02-28T10:53:21;3;2;
81989;PMS5003;71485;51.638;-0.182;2024-02-28T10:55:47;4;3;
81989;PMS5003;71485;51.638;-0.182;2024-02-28T10:58:11;4;4;
81989;PMS5003;71485;51.638;-0.182;2024-02-28T11:00:38;4;3;
81989;PMS5003;71485;51.638;-0.182;2024-02-28T11:03:02;5;5;
81989;PMS5003;71485;51.638;-0.182;2024-02-28T11:07:55;5;5;
81989;PMS5003;71485;51.638;-0.182;2024-02-28T11:10:23;4;3;
81989;PMS5003;71485;51.638;-0.182;2024-02-28T11:12:54;6;5;
81989;PMS5003;71485;51.638;-0.182;2024-02-28T11:15:16;3;3;
81989;PMS5003;71485;51.638;-0.182;2024-02-28T11:17:36;2;2;
81989;PMS5003;71485;51.638;-0.182;2024-02-28T11:22:27;3;3;
81989;PMS5003;71485;51.638;-0.182;2024-02-28T11:24:54;3;3;
81989;PMS5003;71485;51.638;-0.182;2024-02-28T11:27:18;2;2;
81989;PMS5003;71485;51.638;-0.182;2024-02-28T11:29:44;4;4;
81989;PMS5003;71485;51.638;-0.182;2024-02-28T11:32:09;2;2;
81989;PMS5003;71485;51.638;-0.182;2024-02-28T11:34:35;2;2;
81989;PMS5003;71485;51.638;-0.182;2024-02-28T11:37:02;4;4;
81989;PMS5003;71485;51.638;-0.182;2024-02-28T11:39:28;2;2;
81989;PMS5003;71485;51.638;-0.182;2024-02-28T11:41:52;4;3;
81989;PMS5003;71485;51.638;-0.182;2024-02-28T11:44:19;3;3;
81989;PMS5003;71485;51.638;-0.182;2024-02-28T11:46:44;1;1;
81989;PMS5003;71485;51.638;-0.182;2024-02-28T11:49:09;4;3;
81989;PMS5003;71485;51.638;-0.182;2024-02-28T11:51:35;4;4;
81989;PMS5003;71485;51.638;-0.182;2024-02-28T11:54:02;3;3;
81989;PMS5003;71485;51.638;-0.182;2024-02-28T11:56:26;2;2;
81989;PMS5003;71485;51.638;-0.182;2024-02-28T11:58:58;3;3;
81989;PMS5003;71485;51.638;-0.182;2024-02-28T12:01:17;2;2;
81989;PMS5003;71485;51.638;-0.182;2024-02-28T12:03:44;3;3;
81989;PMS5003;71485;51.638;-0.182;2024-02-28T12:06:08;3;3;
81989;PMS5003;71485;51.638;-0.182;2024-02-28T12:08:39;3;3;
81989;PMS5003;71485;51.638;-0.182;2024-02-28T12:11:06;4;3;
81989;PMS5003;71485;51.638;-0.182;2024-02-28T12:13:25;3;2;
81989;PMS5003;71485;51.638;-0.182;2024-02-28T12:15:51;2;2;
81989;PMS5003;71485;51.638;-0.182;2024-02-28T12:18:16;1;1;
81989;PMS5003;71485;51.638;-0.182;2024-02-28T12:20:42;4;4;
81989;PMS5003;71485;51.638;-0.182;2024-02-28T12:23:07;3;3;
81989;PMS5003;71485;51.638;-0.182;2024-02-28T12:25:34;2;2;
81989;PMS5003;71485;51.638;-0.182;2024-02-28T12:27:59;2;2;
81989;PMS5003;71485;51.638;-0.182;2024-02-28T12:30:24;3;2;
81989;PMS5003;71485;51.638;-0.182;2024-02-28T12:32:50;4;4;
81989;PMS5003;71485;51.638;-0.182;2024-02-28T12:35:15;7;5;
81989;PMS5003;71485;51.638;-0.182;2024-02-28T12:37:41;7;6;
81989;PMS5003;71485;51.638;-0.182;2024-02-28T12:40:07;6;6;
81989;PMS5003;71485;51.638;-0.182;2024-02-28T12:42:35;6;5;
81989;PMS5003;71485;51.638;-0.182;2024-02-28T12:44:58;7;7;
81989;PMS5003;71485;51.638;-0.182;2024-02-28T12:47:23;6;6;
81989;PMS5003;71485;51.638;-0.182;2024-02-28T12:49:53;5;5;
81989;PMS5003;71485;51.638;-0.182;2024-02-28T12:52:14;6;6;
81989;PMS5003;71485;51.638;-0.182;2024-02-28T12:54:39;8;6;
81989;PMS5003;71485;51.638;-0.182;2024-02-28T12:57:05;8;7;
81989;PMS5003;71485;51.638;-0.182;2024-02-28T12:59:31;8;7;
81989;PMS5003;71485;51.638;-0.182;2024-02-28T13:01:56;6;6;
81989;PMS5003;71485;51.638;-0.182;2024-02-28T13:04:24;5;5;
81989;PMS5003;71485;51.638;-0.182;2024-02-28T13:06:53;5;5;
81989;PMS5003;71485;51.638;-0.182;2024-02-28T13:09:15;5;5;
81989;PMS5003;71485;51.638;-0.182;2024-02-28T13:11:39;6;6;
81989;PMS5003;71485;51.638;-0.182;2024-02-28T13:14:05;6;5;
81989;PMS5003;71485;51.638;-0.182;2024-02-28T13:16:30;5;3;
81989;PMS5003;71485;51.638;-0.182;2024-02-28T13:18:56;5;5;
81989;PMS5003;71485;51.638;-0.182;2024-02-28T13:21:21;6;5;
81989;PMS5003;71485;51.638;-0.182;2024-02-28T13:23:47;5;5;
81989;PMS5003;71485;51.638;-0.182;2024-02-28T13:26:13;4;3;
81989;PMS5003;71485;51.638;-0.182;2024-02-28T13:28:39;5;5;
81989;PMS5003;71485;51.638;-0.182;2024-02-28T13:31:04;4;4;
81989;PMS5003;71485;51.638;-0.182;2024-02-28T13:33:31;3;3;
81989;PMS5003;71485;51.638;-0.182;2024-02-28T13:35:55;5;5;
81989;PMS5003;71485;51.638;-0.182;2024-02-28T13:38:21;7;6;
81989;PMS5003;71485;51.638;-0.182;2024-02-28T13:40:46;5;5;
81989;PMS5003;71485;51.638;-0.182;2024-02-28T13:43:12;5;4;
81989;PMS5003;71485;51.638;-0.182;2024-02-28T13:45:38;5;5;
81989;PMS5003;71485;51.638;-0.182;2024-02-28T13:48:03;6;6;
81989;PMS5003;71485;51.638;-0.182;2024-02-28T13:50:30;4;4;
81989;PMS5003;71485;51.638;-0.182;2024-02-28T13:52:54;3;3;
81989;PMS5003;71485;51.638;-0.182;2024-02-28T13:55:21;4;4;
81989;PMS5003;71485;51.638;-0.182;2024-02-28T13:57:46;6;5;
81989;PMS5003;71485;51.638;-0.182;2024-02-28T14:00:12;5;4;
81989;PMS5003;71485;51.638;-0.182;2024-02-28T14:02:37;7;6;
81989;PMS5003;71485;51.638;-0.182;2024-02-28T14:05:03;6;5;
81989;PMS5003;71485;51.638;-0.182;2024-02-28T14:07:31;5;4;
81989;PMS5003;71485;51.638;-0.182;2024-02-28T14:09:56;4;4;
81989;PMS5003;71485;51.638;-0.182;2024-02-28T14:12:21;5;3;
81989;PMS5003;71485;51.638;-0.182;2024-02-28T14:14:47;4;3;
81989;PMS5003;71485;51.638;-0.182;2024-02-28T14:17:12;4;4;
81989;PMS5003;71485;51.638;-0.182;2024-02-28T14:29:48;5;4;
81989;PMS5003;71485;51.638;-0.182;2024-02-28T14:32:14;3;2;
81989;PMS5003;71485;51.638;-0.182;2024-02-28T14:34:39;6;5;
81989;PMS5003;71485;51.638;-0.182;2024-02-28T14:37:04;3;3;
81989;PMS5003;71485;51.638;-0.182;2024-02-28T14:39:31;5;5;
81989;PMS5003;71485;51.638;-0.182;2024-02-28T14:41:56;4;4;
81989;PMS5003;71485;51.638;-0.182;2024-02-28T14:44:21;4;3;
81989;PMS5003;71485;51.638;-0.182;2024-02-28T14:46:47;3;3;
81989;PMS5003;71485;51.638;-0.182;2024-02-28T14:49:17;3;3;
81989;PMS5003;71485;51.638;-0.182;2024-02-28T14:51:38;3;3;
81989;PMS5003;71485;51.638;-0.182;2024-02-28T14:54:04;4;4;
81989;PMS5003;71485;51.638;-0.182;2024-02-28T14:56:32;3;3;
81989;PMS5003;71485;51.638;-0.182;2024-02-28T14:58:56;3;3;
81989;PMS5003;71485;51.638;-0.182;2024-02-28T15:01:20;4;4;
81989;PMS5003;71485;51.638;-0.182;2024-02-28T15:03:46;2;2;
81989;PMS5003;71485;51.638;-0.182;2024-02-28T15:06:17;2;2;
81989;PMS5003;71485;51.638;-0.182;2024-02-28T15:08:41;2;2;
81989;PMS5003;71485;51.638;-0.182;2024-02-28T15:11:04;3;2;
81989;PMS5003;71485;51.638;-0.182;2024-02-28T15:13:28;2;2;
81989;PMS5003;71485;51.638;-0.182;2024-02-28T15:15:54;2;2;
81989;PMS5003;71485;51.638;-0.182;2024-02-28T15:18:20;2;2;
81989;PMS5003;71485;51.638;-0.182;2024-02-28T15:20:46;3;3;
81989;PMS5003;71485;51.638;-0.182;2024-02-28T15:23:12;3;2;
81989;PMS5003;71485;51.638;-0.182;2024-02-28T15:25:37;3;3;
81989;PMS5003;71485;51.638;-0.182;2024-02-28T15:28:02;4;4;
81989;PMS5003;71485;51.638;-0.182;2024-02-28T15:30:28;3;3;
81989;PMS5003;71485;51.638;-0.182;2024-02-28T15:32:53;3;3;
81989;PMS5003;71485;51.638;-0.182;2024-02-28T15:35:19;5;5;
81989;PMS5003;71485;51.638;-0.182;2024-02-28T15:37:46;6;4;
81989;PMS5003;71485;51.638;-0.182;2024-02-28T15:40:13;3;3;
81989;PMS5003;71485;51.638;-0.182;2024-02-28T15:42:39;1;1;
81989;PMS5003;71485;51.638;-0.182;2024-02-28T15:45:03;3;3;
81989;PMS5003;71485;51.638;-0.182;2024-02-28T15:47:27;3;3;
81989;PMS5003;71485;51.638;-0.182;2024-02-28T15:49:54;4;2;
81989;PMS5003;71485;51.638;-0.182;2024-02-28T15:52:18;2;2;
81989;PMS5003;71485;51.638;-0.182;2024-02-28T15:54:44;2;2;
81989;PMS5003;71485;51.638;-0.182;2024-02-28T15:57:10;3;3;
81989;PMS5003;71485;51.638;-0.182;2024-02-28T15:59:37;3;3;
81989;PMS5003;71485;51.638;-0.182;2024-02-28T16:02:03;4;3;
81989;PMS5003;71485;51.638;-0.182;2024-02-28T16:04:26;3;3;
81989;PMS5003;71485;51.638;-0.182;2024-02-28T16:06:53;1;1;
81989;PMS5003;71485;51.638;-0.182;2024-02-28T16:09:21;4;3;
81989;PMS5003;71485;51.638;-0.182;2024-02-28T16:11:45;2;2;
81989;PMS5003;71485;51.638;-0.182;2024-02-28T16:14:09;3;2;
81989;PMS5003;71485;51.638;-0.182;2024-02-28T16:16:34;2;2;
81989;PMS5003;71485;51.638;-0.182;2024-02-28T16:19:00;2;2;
81989;PMS5003;71485;51.638;-0.182;2024-02-28T16:21:26;1;1;
81989;PMS5003;71485;51.638;-0.182;2024-02-28T16:23:51;5;3;
81989;PMS5003;71485;51.638;-0.182;2024-02-28T16:26:18;2;2;
81989;PMS5003;71485;51.638;-0.182;2024-02-28T16:28:43;3;2;
81989;PMS5003;71485;51.638;-0.182;2024-02-28T16:31:08;3;3;
81989;PMS5003;71485;51.638;-0.182;2024-02-28T16:33:36;2;2;
81989;PMS5003;71485;51.638;-0.182;2024-02-28T16:35:59;2;2;